createdAt,value
2022-12-25T00:00:21.146Z,72.64
2022-12-25T00:03:09.054Z,71.98
2022-12-25T00:05:39.182Z,70.52
2022-12-25T00:08:07.146Z,70.46
2022-12-25T00:10:37.519Z,70.64
2022-12-25T00:13:10.066Z,69.01
2022-12-25T00:15:40.742Z,69.93
2022-12-25T00:18:08.025Z,70.22
2022-12-25T00:20:35.992Z,71.15
2022-12-25T00:23:03.239Z,70.34
2022-12-25T00:25:30.701Z,72.06
2022-12-25T00:27:57.912Z,72.81
2022-12-25T00:30:25.670Z,71.01
2022-12-25T00:32:52.749Z,69.95
2022-12-25T00:35:20.288Z,69.17
2022-12-25T00:37:47.496Z,69.90
2022-12-25T00:40:14.961Z,69.70
2022-12-25T00:42:42.088Z,71.21
2022-12-25T00:45:10.224Z,70.46
2022-12-25T00:47:37.329Z,73.94
2022-12-25T00:50:05.465Z,73.74
2022-12-25T00:52:33.030Z,73.95
2022-12-25T00:55:00.495Z,73.93
2022-12-25T00:57:27.636Z,73.72
2022-12-25T00:59:55.292Z,74.02
2022-12-25T01:02:25.472Z,76.06
2022-12-25T01:04:56.671Z,73.70
2022-12-25T01:07:26.518Z,74.07
2022-12-25T01:10:12.606Z,75.68
2022-12-25T01:12:42.619Z,75.95
2022-12-25T01:15:11.804Z,76.25
2022-12-25T01:17:39.081Z,77.38
2022-12-25T01:20:07.399Z,75.14
2022-12-25T01:22:34.489Z,75.21
2022-12-25T01:25:02.156Z,75.87
2022-12-25T01:27:29.328Z,74.70
2022-12-25T01:29:56.790Z,76.09
2022-12-25T01:32:24.449Z,76.64
2022-12-25T01:34:56.188Z,74.16
2022-12-25T01:37:26.459Z,74.54
2022-12-25T01:39:54.065Z,75.61
2022-12-25T01:42:23.877Z,76.70
2022-12-25T01:44:51.440Z,76.53
2022-12-25T01:47:19.145Z,77.50
2022-12-25T01:49:50.482Z,74.35
2022-12-25T01:52:24.789Z,73.34
2022-12-25T01:54:52.303Z,74.75
2022-12-25T01:57:33.690Z,74.55
2022-12-25T02:00:02.207Z,71.58
2022-12-25T02:02:30.029Z,70.81
2022-12-25T02:05:14.516Z,70.73
2022-12-25T02:07:43.244Z,70.42
2022-12-25T02:10:12.135Z,68.02
2022-12-25T02:12:41.043Z,67.78
2022-12-25T02:15:12.380Z,68.21
2022-12-25T02:18:07.495Z,68.50
2022-12-25T02:20:57.025Z,70.58
2022-12-25T02:23:54.195Z,69.57
2022-12-25T02:26:39.591Z,68.76
2022-12-25T02:29:25.585Z,69.70
2022-12-25T02:32:05.499Z,71.19
2022-12-25T02:34:59.278Z,71.05
2022-12-25T02:37:32.854Z,70.38
2022-12-25T02:40:17.627Z,69.04
2022-12-25T02:43:17.686Z,69.01
2022-12-25T02:46:17.785Z,68.97
2022-12-25T02:49:12.013Z,68.73
2022-12-25T02:52:01.697Z,70.92
2022-12-25T02:54:52.770Z,71.02
2022-12-25T02:57:45.242Z,70.27
2022-12-25T03:00:32.965Z,70.38
2022-12-25T03:03:21.425Z,67.94
2022-12-25T03:06:10.540Z,65.74
2022-12-25T03:08:42.865Z,65.71
2022-12-25T03:11:31.741Z,67.00
2022-12-25T03:14:26.477Z,66.16
2022-12-25T03:16:59.564Z,67.23
2022-12-25T03:19:49.491Z,66.97
2022-12-25T03:22:47.362Z,66.69
2022-12-25T03:25:34.661Z,67.20
2022-12-25T03:28:02.468Z,68.05
2022-12-25T03:31:13.808Z,68.27
2022-12-25T03:34:12.475Z,67.49
2022-12-25T03:37:40.123Z,66.42
2022-12-25T03:40:39.346Z,65.56
2022-12-25T03:43:38.363Z,66.57
2022-12-25T03:46:32.349Z,66.34
2022-12-25T03:49:27.066Z,65.46
2022-12-25T03:52:17.002Z,65.23
2022-12-25T03:55:05.814Z,64.84
2022-12-25T03:57:53.434Z,64.50
2022-12-25T04:00:39.033Z,64.89
2022-12-25T04:03:25.220Z,64.14
2022-12-25T04:06:10.992Z,64.67
2022-12-25T04:08:56.999Z,65.04
2022-12-25T04:11:42.786Z,65.36
2022-12-25T04:14:28.946Z,66.06
2022-12-25T04:17:25.155Z,65.50
2022-12-25T04:20:11.276Z,65.15
2022-12-25T04:23:13.755Z,65.58
2022-12-25T04:26:00.186Z,64.25
2022-12-25T04:28:45.954Z,64.49
2022-12-25T04:31:32.163Z,67.31
2022-12-25T04:34:17.872Z,66.04
2022-12-25T04:36:45.476Z,66.37
2022-12-25T04:39:12.732Z,64.60
2022-12-25T04:41:40.150Z,64.44
2022-12-25T04:44:07.325Z,64.28
2022-12-25T04:46:34.767Z,64.00
2022-12-25T04:49:01.932Z,63.86
2022-12-25T04:51:29.361Z,63.24
2022-12-25T04:53:56.928Z,63.33
2022-12-25T04:56:24.639Z,63.59
2022-12-25T04:58:51.941Z,64.58
2022-12-25T05:05:29.471Z,62.66
2022-12-25T05:07:58.379Z,65.17
2022-12-25T05:10:25.473Z,65.90
2022-12-25T05:12:53.218Z,65.01
2022-12-25T05:15:20.308Z,64.72
2022-12-25T05:17:47.753Z,65.97
2022-12-25T05:20:14.889Z,65.03
2022-12-25T05:22:42.857Z,67.15
2022-12-25T05:25:09.966Z,69.19
2022-12-25T05:27:37.512Z,69.35
2022-12-25T05:30:04.925Z,70.61
2022-12-25T05:32:32.453Z,70.64
2022-12-25T05:35:00.638Z,69.13
2022-12-25T05:37:28.180Z,68.91
2022-12-25T05:39:55.281Z,67.96
2022-12-25T05:42:22.847Z,69.65
2022-12-25T05:44:50.042Z,67.03
2022-12-25T05:47:17.443Z,67.40
2022-12-25T05:49:44.662Z,66.71
2022-12-25T05:52:12.321Z,67.69
2022-12-25T05:54:39.557Z,68.93
2022-12-25T05:57:07.080Z,69.28
2022-12-25T05:59:34.261Z,68.91
2022-12-25T06:02:01.895Z,70.27
2022-12-25T06:04:29.588Z,68.72
2022-12-25T06:06:57.212Z,69.23
2022-12-25T06:09:24.302Z,70.46
2022-12-25T06:11:51.754Z,70.85
2022-12-25T11:16:03.800Z,59.90
2022-12-25T11:18:45.273Z,59.01
2022-12-25T11:21:31.034Z,60.03
2022-12-25T11:24:07.347Z,59.44
2022-12-25T11:26:55.497Z,58.36
2022-12-25T11:29:43.887Z,60.10
2022-12-25T11:32:28.743Z,58.67
2022-12-25T11:34:58.106Z,59.16
2022-12-25T11:37:39.562Z,57.16
2022-12-25T11:40:07.793Z,56.74
2022-12-25T11:42:42.297Z,57.45
2022-12-25T11:45:38.315Z,58.76
2022-12-25T11:48:14.095Z,57.83
2022-12-25T11:50:48.480Z,59.27
2022-12-25T11:53:30.838Z,59.39
2022-12-25T11:56:06.427Z,59.57
2022-12-25T11:58:39.211Z,60.84
2022-12-25T12:01:36.486Z,57.82
2022-12-25T12:04:08.495Z,59.64
2022-12-25T12:06:48.258Z,58.45
2022-12-25T12:09:33.738Z,59.04
2022-12-25T12:12:29.407Z,59.19
2022-12-25T12:15:19.762Z,58.85
2022-12-25T12:17:47.221Z,56.93
2022-12-25T12:20:35.053Z,56.05
2022-12-25T12:23:10.830Z,57.00
2022-12-25T12:25:42.938Z,56.47
2022-12-25T12:28:21.581Z,56.81
2022-12-25T12:31:03.735Z,56.13
2022-12-25T12:33:54.135Z,55.91
2022-12-25T12:36:35.747Z,55.36
2022-12-25T12:39:06.152Z,54.67
2022-12-25T12:41:47.669Z,53.99
2022-12-25T12:44:17.516Z,54.12
2022-12-25T12:46:53.893Z,53.18
2022-12-25T12:49:33.813Z,52.63
2022-12-25T12:52:30.613Z,51.93
2022-12-25T12:55:02.845Z,51.78
2022-12-25T12:57:40.049Z,51.68
2022-12-25T13:00:16.391Z,51.86
2022-12-25T13:03:27.878Z,52.30
2022-12-25T13:06:01.180Z,52.29
2022-12-25T13:08:40.364Z,52.31
2022-12-25T13:11:21.563Z,52.20
2022-12-25T13:13:50.910Z,51.60
2022-12-25T13:16:32.221Z,52.97
2022-12-25T13:19:04.924Z,53.84
2022-12-25T13:21:33.741Z,52.95
2022-12-25T13:24:19.497Z,52.44
2022-12-25T13:26:47.066Z,52.55
2022-12-25T13:29:44.491Z,52.76
2022-12-25T13:32:22.340Z,53.13
2022-12-25T13:34:50.823Z,52.30
2022-12-25T13:37:21.926Z,50.95
2022-12-25T13:39:56.892Z,50.56
2022-12-25T13:42:28.648Z,50.71
2022-12-25T13:44:59.478Z,50.85
2022-12-25T13:47:26.929Z,50.87
2022-12-25T13:49:56.223Z,51.07
2022-12-25T13:52:32.678Z,50.64
2022-12-25T13:55:10.922Z,50.62
2022-12-25T13:57:42.343Z,50.85
2022-12-25T14:00:20.573Z,50.72
2022-12-25T14:02:49.443Z,51.25
2022-12-25T14:05:27.354Z,51.07
2022-12-25T14:07:57.140Z,51.57
2022-12-25T14:10:27.679Z,51.64
2022-12-25T14:12:58.265Z,51.81
2022-12-25T14:15:28.208Z,52.20
2022-12-25T14:17:55.931Z,52.93
2022-12-25T14:20:24.826Z,52.89
2022-12-25T14:22:54.820Z,52.86
2022-12-25T14:25:31.567Z,53.02
2022-12-25T14:28:16.145Z,53.16
2022-12-25T14:30:43.773Z,53.42
2022-12-25T14:33:18.184Z,53.47
2022-12-25T14:35:47.489Z,53.90
2022-12-25T14:38:24.935Z,53.58
2022-12-25T14:41:22.642Z,53.77
2022-12-25T14:43:55.351Z,54.07
2022-12-25T14:46:27.711Z,53.95
2022-12-25T14:49:20.562Z,54.25
2022-12-25T14:51:47.764Z,54.42
2022-12-25T14:54:20.455Z,54.36
2022-12-25T14:56:50.509Z,55.02
2022-12-25T14:59:21.604Z,55.46
2022-12-25T15:01:56.199Z,55.13
2022-12-25T15:04:26.348Z,55.81
2022-12-25T15:06:54.999Z,55.78
2022-12-25T15:09:23.637Z,56.11
2022-12-25T15:11:53.097Z,56.10
2022-12-25T15:14:20.842Z,56.95
2022-12-25T15:16:51.566Z,55.81
2022-12-25T15:19:36.995Z,56.04
2022-12-25T15:22:05.188Z,56.57
2022-12-25T15:24:32.859Z,56.41
2022-12-25T15:27:00.923Z,56.40
2022-12-25T15:32:21.107Z,56.59
2022-12-25T15:34:50.291Z,57.08
2022-12-25T15:37:19.100Z,58.11
2022-12-25T15:39:47.127Z,60.70
2022-12-25T15:42:17.395Z,59.69
2022-12-25T15:44:45.713Z,58.44
2022-12-25T15:47:14.915Z,59.05
2022-12-25T15:49:42.714Z,58.39
2022-12-25T15:52:14.247Z,58.05
2022-12-25T15:54:41.874Z,57.46
2022-12-25T15:57:19.723Z,58.13
2022-12-25T15:59:47.429Z,56.82
2022-12-25T16:02:17.386Z,55.90
2022-12-25T16:04:45.412Z,56.22
2022-12-25T16:07:18.533Z,56.34
2022-12-25T16:09:46.554Z,56.01
2022-12-25T16:12:13.783Z,56.05
2022-12-25T16:14:41.652Z,56.68
2022-12-25T16:17:13.046Z,55.89
2022-12-25T16:19:40.542Z,56.06
2022-12-25T16:22:18.961Z,55.49
2022-12-25T16:24:46.610Z,55.00
2022-12-25T16:27:13.695Z,54.41
2022-12-25T16:29:42.584Z,55.03
2022-12-25T16:32:13.385Z,54.73
2022-12-25T16:34:41.422Z,54.76
2022-12-25T16:37:08.962Z,55.01
2022-12-25T16:39:36.463Z,55.51
2022-12-25T16:42:03.627Z,55.00
2022-12-25T16:44:31.255Z,55.54
2022-12-25T16:46:58.502Z,55.74
2022-12-25T16:49:25.946Z,55.46
2022-12-25T16:51:53.107Z,55.24
2022-12-25T16:54:20.672Z,55.79
2022-12-25T16:56:47.761Z,56.14
2022-12-25T16:59:15.453Z,56.85
2022-12-25T17:04:03.917Z,55.11
2022-12-25T17:06:31.588Z,55.66
2022-12-25T17:09:00.567Z,55.18
2022-12-25T17:11:30.276Z,55.52
2022-12-25T17:14:00.169Z,55.88
2022-12-25T17:16:30.704Z,55.34
2022-12-25T17:19:01.657Z,54.55
2022-12-25T17:21:34.542Z,55.73
2022-12-25T17:24:04.080Z,56.89
2022-12-25T17:26:33.143Z,55.96
2022-12-25T17:29:00.411Z,55.39
2022-12-25T17:31:36.376Z,55.10
2022-12-25T17:34:04.469Z,56.20
2022-12-25T17:36:32.722Z,55.65
2022-12-25T17:39:05.230Z,55.86
2022-12-25T17:41:35.623Z,55.07
2022-12-25T17:44:02.957Z,54.41
2022-12-25T17:46:31.582Z,54.28
2022-12-25T17:49:05.159Z,54.39
2022-12-25T17:51:32.749Z,53.99
2022-12-25T17:54:03.444Z,53.87
2022-12-25T17:56:31.798Z,55.87
2022-12-25T17:59:01.470Z,54.45
2022-12-25T18:01:29.560Z,56.22
2022-12-25T18:03:59.347Z,59.26
2022-12-25T18:06:31.843Z,57.80
2022-12-25T18:08:59.193Z,56.29
2022-12-25T18:11:30.824Z,55.83
2022-12-25T18:14:05.679Z,57.35
2022-12-25T18:16:38.054Z,56.07
2022-12-25T18:19:06.260Z,55.87
2022-12-25T18:21:33.921Z,55.25
2022-12-25T18:24:03.168Z,54.98
2022-12-25T18:26:30.805Z,59.50
2022-12-25T18:28:58.131Z,56.74
2022-12-25T18:31:27.758Z,55.93
2022-12-25T18:33:55.045Z,57.14
2022-12-25T18:36:26.075Z,55.01
2022-12-25T18:38:54.662Z,54.39
2022-12-25T18:41:23.334Z,54.00
2022-12-25T18:43:52.878Z,54.18
2022-12-25T18:46:26.968Z,56.35
2022-12-25T18:48:56.249Z,55.37
2022-12-25T18:51:24.118Z,54.79
2022-12-25T18:53:51.759Z,58.11
2022-12-25T18:56:19.748Z,57.32
2022-12-25T18:58:47.861Z,57.39
2022-12-25T19:01:22.209Z,56.08
2022-12-25T19:03:57.217Z,59.18
2022-12-25T19:06:30.058Z,58.83
2022-12-25T19:08:58.079Z,59.63
2022-12-25T19:11:25.618Z,57.43
2022-12-25T19:13:52.865Z,56.50
2022-12-25T19:16:20.711Z,56.76
2022-12-25T19:18:47.838Z,56.87
2022-12-25T19:21:16.246Z,59.34
2022-12-25T19:23:44.546Z,59.21
2022-12-25T19:26:12.512Z,57.98
2022-12-25T19:28:40.737Z,57.19
2022-12-25T19:31:09.552Z,64.58
2022-12-25T19:33:39.076Z,65.80
2022-12-25T19:36:10.831Z,66.58
2022-12-25T19:38:38.280Z,65.25
2022-12-25T19:41:10.593Z,62.34
2022-12-25T19:43:39.735Z,60.54
2022-12-25T19:46:10.781Z,58.79
2022-12-25T19:48:38.169Z,59.18
2022-12-25T19:51:15.207Z,57.09
2022-12-25T19:53:42.608Z,56.54
2022-12-25T19:56:10.155Z,59.57
2022-12-25T19:58:37.362Z,58.67
2022-12-25T20:01:07.932Z,56.82
2022-12-25T20:03:43.584Z,56.55
2022-12-25T20:06:26.290Z,60.59
2022-12-25T20:08:59.826Z,69.65
2022-12-25T20:11:29.816Z,65.57
2022-12-25T20:13:57.861Z,62.10
2022-12-25T20:16:26.053Z,63.53
2022-12-25T20:18:53.553Z,60.67
2022-12-25T20:21:23.222Z,60.41
2022-12-25T20:23:52.355Z,65.22
2022-12-25T20:26:23.975Z,63.33
2022-12-25T20:28:52.239Z,63.02
2022-12-25T20:31:21.201Z,59.95
2022-12-25T20:33:49.583Z,59.89
2022-12-25T20:36:19.128Z,59.15
2022-12-25T20:38:46.294Z,60.48
2022-12-25T20:41:31.933Z,61.68
2022-12-25T20:44:00.252Z,64.26
2022-12-25T20:46:31.087Z,62.13
2022-12-25T20:48:58.861Z,62.22
2022-12-25T20:51:27.263Z,60.92
2022-12-25T20:53:55.655Z,62.45
2022-12-25T20:56:26.267Z,65.41
2022-12-25T20:58:55.834Z,64.64
2022-12-25T21:01:24.620Z,61.71
2022-12-25T21:03:52.011Z,64.36
2022-12-25T23:10:42.189Z,74.89
2022-12-25T23:13:28.010Z,75.14
2022-12-25T23:15:55.558Z,71.28
2022-12-25T23:18:41.834Z,68.03
2022-12-25T23:21:32.125Z,65.86
2022-12-25T23:24:18.391Z,68.19
2022-12-25T23:26:45.707Z,73.92
2022-12-25T23:29:31.571Z,75.01
2022-12-25T23:31:58.954Z,77.55
2022-12-25T23:34:34.541Z,80.48
2022-12-25T23:37:01.948Z,78.84
2022-12-25T23:39:29.526Z,82.96
2022-12-25T23:41:56.778Z,84.34
2022-12-25T23:44:24.703Z,78.67
2022-12-25T23:46:53.664Z,79.08
2022-12-25T23:49:23.039Z,80.61
2022-12-25T23:51:50.662Z,80.15
2022-12-25T23:54:22.367Z,78.35
2022-12-25T23:56:50.235Z,88.01
2022-12-25T23:59:18.324Z,83.34
